Time;durP1;ratioP1;P1;durP2;ratioP2;P2;SDS_P1;SDS_P2;PMS_P1;PMS_P2;Temp;Humidity;BMP_temperature;BMP_pressure;BME280_temperature;BME280_humidity;BME280_pressure;Samples;Min_cycle;Max_cycle;Signal;HPM_P1;HPM_P2
2022/09/21 00:08:39;;;;;;;9.18;8.27;;;8.10;99.90;;;;;;5843739;23;20505;31
2022/09/21 00:11:07;;;;;;;9.98;8.55;;;8.20;99.90;;;;;;5699846;23;20306;-87
2022/09/21 00:13:36;;;;;;;9.70;8.20;;;8.20;99.90;;;;;;5375669;23;20270;-86
2022/09/21 00:18:45;;;;;;;8.95;8.07;;;8.20;99.90;;;;;;5705423;23;20221;-88
2022/09/21 00:21:14;;;;;;;9.02;8.13;;;8.30;99.90;;;;;;5550012;23;20214;-87
2022/09/21 00:31:41;;;;;;;11.98;8.25;;;8.20;99.90;;;;;;5586403;23;20238;-87
2022/09/21 00:39:20;;;;;;;8.75;7.80;;;8.10;99.90;;;;;;5113418;23;20230;-87
2022/09/21 00:41:52;;;;;;;9.02;8.13;;;8.10;99.90;;;;;;5295257;23;20324;-88
2022/09/21 00:49:37;;;;;;;9.65;7.43;;;8.10;99.90;;;;;;5626715;23;20257;-85
2022/09/21 01:02:45;;;;;;;9.85;7.78;;;8.10;99.90;;;;;;5175397;23;20642;-90
2022/09/21 01:05:13;;;;;;;8.63;7.82;;;7.80;99.90;;;;;;5026958;28;20213;-85
2022/09/21 01:07:44;;;;;;;8.68;7.78;;;7.90;99.90;;;;;;5009354;28;20193;-89
2022/09/21 01:12:49;;;;;;;12.02;8.38;;;7.80;99.90;;;;;;5512749;23;20221;-89
2022/09/21 01:15:41;;;;;;;7.72;6.95;;;8.00;99.90;;;;;;4977951;28;20235;-88
2022/09/21 01:21:14;;;;;;;7.13;6.43;;;7.80;99.90;;;;;;5041556;23;20234;-87
2022/09/21 01:26:44;;;;;;;10.00;7.78;;;8.00;99.90;;;;;;5156506;23;20280;-87
2022/09/21 01:29:32;;;;;;;8.77;6.18;;;7.90;99.90;;;;;;4976716;28;20246;-88
2022/09/21 01:32:34;;;;;;;7.43;6.72;;;7.80;99.90;;;;;;4979061;28;20222;-85
2022/09/21 01:35:20;;;;;;;7.90;7.07;;;7.80;99.90;;;;;;5260742;23;20234;-87
2022/09/21 01:48:25;;;;;;;7.40;6.70;;;7.80;99.90;;;;;;5124060;27;20603;-87
2022/09/21 01:50:58;;;;;;;10.65;6.97;;;7.70;99.90;;;;;;5111486;28;20245;-89
2022/09/21 01:53:57;;;;;;;9.05;8.15;;;7.70;99.90;;;;;;5115930;28;20198;-89
2022/09/21 01:56:39;;;;;;;8.57;7.03;;;7.60;99.90;;;;;;5117021;27;20467;-89
2022/09/21 01:59:26;;;;;;;12.77;8.25;;;7.60;99.90;;;;;;5107124;28;20209;-88
2022/09/21 02:01:59;;;;;;;8.25;7.35;;;7.60;99.90;;;;;;5103498;28;20210;-87
2022/09/21 02:04:26;;;;;;;9.57;7.53;;;7.60;99.90;;;;;;5111844;28;20210;-89
2022/09/21 02:06:54;;;;;;;8.70;7.28;;;7.70;99.90;;;;;;5100231;28;20221;-88
2022/09/21 02:09:22;;;;;;;7.53;6.82;;;7.70;99.90;;;;;;5100865;28;20220;-92
2022/09/21 02:11:51;;;;;;;8.85;7.22;;;7.70;99.90;;;;;;5106769;28;20210;-91
2022/09/21 02:14:21;;;;;;;9.10;7.22;;;7.70;99.90;;;;;;5115146;28;20274;-89
2022/09/21 02:17:06;;;;;;;10.00;6.93;;;7.70;99.90;;;;;;5104811;28;20248;-86
2022/09/21 02:20:03;;;;;;;9.38;7.30;;;7.60;99.90;;;;;;5125004;27;20287;-88
2022/09/21 02:23:03;;;;;;;9.10;7.70;;;7.60;99.90;;;;;;5148557;27;20186;-86
2022/09/21 02:26:11;;;;;;;8.07;7.28;;;7.60;99.90;;;;;;5122796;28;20257;-85
2022/09/21 02:29:23;;;;;;;11.02;8.32;;;7.60;99.90;;;;;;5128052;27;20219;-91
2022/09/21 02:32:05;;;;;;;9.50;7.70;;;7.60;99.90;;;;;;5094168;28;20206;-89
2022/09/21 02:34:38;;;;;;;26.73;7.95;;;7.50;99.90;;;;;;5100408;28;20205;-89
2022/09/21 02:37:21;;;;;;;11.18;7.90;;;7.50;99.90;;;;;;5105740;28;20566;-91
2022/09/21 02:40:29;;;;;;;14.32;8.80;;;7.40;99.90;;;;;;5093682;28;20228;-89
2022/09/21 02:43:08;;;;;;;9.32;8.38;;;7.50;99.90;;;;;;5097518;28;20513;-89
2022/09/21 02:45:47;;;;;;;9.38;8.55;;;7.50;99.90;;;;;;5109877;28;20235;-86
2022/09/21 02:48:20;;;;;;;10.85;8.02;;;7.50;99.90;;;;;;5095531;28;20389;-86
2022/09/21 02:50:56;;;;;;;12.52;8.02;;;7.70;99.90;;;;;;5087127;28;20198;-89
2022/09/21 02:53:27;;;;;;;9.80;7.85;;;7.70;99.90;;;;;;5079730;28;20206;-88
2022/09/21 02:55:57;;;;;;;9.55;8.35;;;7.80;99.90;;;;;;5096024;28;20192;-86
2022/09/21 02:58:28;;;;;;;11.55;9.02;;;8.10;99.90;;;;;;5077356;28;20279;-86
2022/09/21 03:00:56;;;;;;;10.43;9.18;;;8.10;99.90;;;;;;5089582;28;20213;-85
2022/09/21 03:03:25;;;;;;;9.50;7.05;;;8.30;99.90;;;;;;5095640;28;20275;-86
2022/09/21 03:08:29;;;;;;;9.95;7.75;;;8.30;99.90;;;;;;5004177;28;20209;-91
2022/09/21 03:13:38;;;;;;;13.05;9.45;;;8.40;99.90;;;;;;5162500;22;20644;-86
2022/09/21 03:16:06;;;;;;;9.43;8.52;;;8.30;99.90;;;;;;5049593;28;20266;-89
2022/09/21 03:18:34;;;;;;;14.05;9.15;;;8.40;99.90;;;;;;5047787;28;20239;-86
2022/09/21 03:21:01;;;;;;;15.05;11.02;;;8.40;99.90;;;;;;5066470;28;20262;-87
2022/09/21 03:23:29;;;;;;;13.02;9.75;;;8.40;99.90;;;;;;5046982;28;20270;-87
2022/09/21 03:26:02;;;;;;;14.70;11.50;;;8.40;99.90;;;;;;5053648;28;20219;-86
2022/09/21 03:28:31;;;;;;;42.88;12.70;;;8.50;99.90;;;;;;5047277;28;20196;-86
2022/09/21 03:30:57;;;;;;;17.10;11.95;;;8.40;99.90;;;;;;5056081;28;20187;-89
2022/09/21 03:33:25;;;;;;;11.82;9.98;;;8.40;99.90;;;;;;5048342;28;20219;-84
2022/09/21 03:35:52;;;;;;;14.52;10.88;;;8.50;99.90;;;;;;5056861;28;20204;-87
2022/09/21 03:38:20;;;;;;;15.43;10.50;;;8.60;99.90;;;;;;5052403;28;20289;-87
2022/09/21 03:40:48;;;;;;;15.20;10.27;;;8.50;99.90;;;;;;5054278;28;20197;-85
2022/09/21 03:43:18;;;;;;;13.80;10.10;;;8.60;99.90;;;;;;5196871;22;20290;-83
2022/09/21 03:45:47;;;;;;;11.90;10.27;;;8.50;99.90;;;;;;5074548;28;20203;-87
2022/09/21 03:48:15;;;;;;;13.70;10.70;;;8.50;99.90;;;;;;5077231;28;20210;-88
2022/09/21 03:50:42;;;;;;;14.05;11.95;;;8.50;99.90;;;;;;5080139;28;20188;-88
2022/09/21 03:53:11;;;;;;;17.17;12.27;;;8.50;99.90;;;;;;5080399;28;20219;-87
2022/09/21 03:55:41;;;;;;;15.60;11.35;;;8.50;99.90;;;;;;5084438;28;20203;-86
2022/09/21 03:58:09;;;;;;;19.67;14.50;;;8.50;99.90;;;;;;5152628;22;20272;-86
2022/09/21 04:00:38;;;;;;;19.50;12.73;;;8.60;99.90;;;;;;5053518;28;20217;-88
2022/09/21 04:03:07;;;;;;;15.10;12.30;;;8.60;99.90;;;;;;5074410;28;20276;-85
2022/09/21 04:05:34;;;;;;;19.63;14.25;;;8.60;99.90;;;;;;5079880;28;20196;-86
2022/09/21 04:08:02;;;;;;;16.92;15.07;;;8.60;99.90;;;;;;5072970;28;20207;-89
2022/09/21 04:10:32;;;;;;;16.52;14.52;;;8.60;99.90;;;;;;5067046;28;20200;-85
2022/09/21 04:13:03;;;;;;;18.67;14.30;;;8.60;99.90;;;;;;5077689;28;20192;-86
2022/09/21 04:15:36;;;;;;;17.77;14.07;;;8.60;99.90;;;;;;5060435;28;20206;-85
2022/09/21 04:18:04;;;;;;;17.75;13.23;;;8.70;99.90;;;;;;5059108;28;20304;-84
2022/09/21 04:20:31;;;;;;;18.05;13.20;;;8.70;99.90;;;;;;5070141;28;20208;-84
2022/09/21 04:22:58;;;;;;;16.75;12.40;;;8.80;99.90;;;;;;5054098;28;20217;-84
2022/09/21 04:25:25;;;;;;;20.42;13.38;;;8.80;99.90;;;;;;5053345;28;20215;-84
2022/09/21 04:27:53;;;;;;;17.73;12.95;;;8.70;99.90;;;;;;5057826;28;20204;-84
2022/09/21 04:30:21;;;;;;;18.17;11.85;;;8.80;99.90;;;;;;5063931;28;20247;-85
2022/09/21 04:32:49;;;;;;;16.35;12.18;;;8.70;99.90;;;;;;5064536;28;20200;-84
2022/09/21 04:35:17;;;;;;;18.10;13.23;;;8.70;99.90;;;;;;5066008;28;20209;-84
2022/09/21 04:37:45;;;;;;;18.92;12.80;;;8.80;99.90;;;;;;5060246;28;20233;-84
2022/09/21 04:40:12;;;;;;;14.07;11.65;;;8.80;99.90;;;;;;5070546;28;20196;-84
2022/09/21 04:42:39;;;;;;;14.82;11.48;;;8.80;99.90;;;;;;5074715;28;20198;-85
2022/09/21 04:45:09;;;;;;;18.17;14.80;;;8.80;99.90;;;;;;5063703;28;20208;-84
2022/09/21 04:47:36;;;;;;;13.05;11.60;;;8.80;99.90;;;;;;5063303;28;20204;-84
2022/09/21 04:50:03;;;;;;;12.75;11.38;;;8.80;99.90;;;;;;5070091;28;20204;-84
2022/09/21 04:52:31;;;;;;;17.92;13.30;;;8.80;99.90;;;;;;5059018;28;20467;-85
2022/09/21 04:54:58;;;;;;;13.07;11.77;;;8.80;99.90;;;;;;5071001;28;20250;-85
2022/09/21 04:57:34;;;;;;;19.05;11.57;;;9.00;99.90;;;;;;5077332;28;20222;-84
2022/09/21 05:00:04;;;;;;;17.83;12.55;;;8.90;99.90;;;;;;5068348;28;20352;-86
2022/09/21 05:02:33;;;;;;;12.60;10.70;;;8.90;99.90;;;;;;5062656;28;20232;-85
2022/09/21 05:05:01;;;;;;;15.48;12.68;;;8.90;99.90;;;;;;5061634;28;20216;-87
2022/09/21 05:07:28;;;;;;;13.40;10.85;;;8.90;99.90;;;;;;5062609;28;20208;-86
2022/09/21 05:10:03;;;;;;;18.65;12.75;;;8.90;99.90;;;;;;5166413;22;20288;-86
2022/09/21 05:12:31;;;;;;;17.25;12.13;;;9.00;99.90;;;;;;5041547;28;20327;-85
2022/09/21 05:14:59;;;;;;;18.08;12.23;;;9.00;99.90;;;;;;5055232;28;20205;-85
2022/09/21 05:17:26;;;;;;;14.38;12.63;;;8.90;99.90;;;;;;5048273;28;20225;-88
2022/09/21 05:19:54;;;;;;;12.73;10.13;;;9.00;99.90;;;;;;5046685;28;20213;-87
2022/09/21 05:22:21;;;;;;;15.05;10.95;;;9.00;99.90;;;;;;5041789;28;20425;-84
2022/09/21 05:24:50;;;;;;;12.75;11.38;;;8.90;99.90;;;;;;5055999;28;20212;-83
2022/09/21 05:27:18;;;;;;;11.68;10.57;;;9.00;99.90;;;;;;5071813;28;20222;-83
2022/09/21 05:29:47;;;;;;;13.98;12.50;;;9.20;99.90;;;;;;5060860;28;20189;-84
2022/09/21 05:32:40;;;;;;;10.85;9.88;;;9.30;99.90;;;;;;5056137;28;20244;-87
2022/09/21 05:35:36;;;;;;;12.60;10.05;;;9.30;99.90;;;;;;5055010;28;20193;-84
2022/09/21 05:38:13;;;;;;;11.07;8.93;;;9.30;99.90;;;;;;5054767;28;20220;-85
2022/09/21 05:40:41;;;;;;;9.98;8.88;;;9.40;99.90;;;;;;5068005;28;20262;-86
2022/09/21 05:43:12;;;;;;;11.75;9.48;;;9.30;99.90;;;;;;5053740;28;20190;-85
2022/09/21 05:45:50;;;;;;;14.75;10.63;;;9.30;99.90;;;;;;5053400;28;20201;-80
2022/09/21 05:48:25;;;;;;;12.43;11.10;;;9.30;99.90;;;;;;5068949;28;20181;-84
2022/09/21 05:51:20;;;;;;;11.40;10.20;;;9.30;99.90;;;;;;5054821;28;20263;-83
2022/09/21 05:54:04;;;;;;;14.55;10.52;;;9.40;99.90;;;;;;5058516;28;20186;-83
2022/09/21 05:56:49;;;;;;;18.63;12.20;;;9.30;99.90;;;;;;5064432;28;20197;-84
2022/09/21 05:59:40;;;;;;;15.32;11.32;;;9.40;99.90;;;;;;5058267;28;20223;-83
2022/09/21 06:02:44;;;;;;;13.98;11.55;;;9.60;99.90;;;;;;5052180;28;20239;-83
2022/09/21 06:05:13;;;;;;;19.52;11.60;;;9.60;99.90;;;;;;5053590;28;20209;-84
2022/09/21 06:07:40;;;;;;;13.93;12.23;;;9.90;99.90;;;;;;5036898;28;20217;-85
2022/09/21 06:10:09;;;;;;;12.35;10.25;;;10.10;99.90;;;;;;5071849;28;20194;-83
2022/09/21 06:12:35;;;;;;;18.40;10.13;;;10.10;99.90;;;;;;5067637;28;20203;-84
2022/09/21 06:15:04;;;;;;;15.43;12.07;;;10.20;99.90;;;;;;5062463;28;20226;-82
2022/09/21 06:17:32;;;;;;;13.77;10.23;;;10.30;99.90;;;;;;5060517;28;20221;-83
2022/09/21 06:19:59;;;;;;;11.55;10.35;;;10.30;99.90;;;;;;5063491;28;20259;-82
2022/09/21 06:22:26;;;;;;;12.75;10.32;;;10.40;99.90;;;;;;5066991;28;20206;-81
2022/09/21 06:24:56;;;;;;;14.75;11.35;;;10.30;99.90;;;;;;5068640;28;20427;-81
2022/09/21 06:27:22;;;;;;;13.30;10.60;;;10.40;99.90;;;;;;5055255;28;20201;-82
2022/09/21 06:29:51;;;;;;;12.65;9.68;;;10.40;99.90;;;;;;5053348;28;20206;-82
2022/09/21 06:32:20;;;;;;;12.27;9.27;;;10.40;99.90;;;;;;5065549;28;20201;-82
2022/09/21 06:34:48;;;;;;;11.75;9.15;;;10.20;99.90;;;;;;5071256;28;20197;-84
2022/09/21 06:37:15;;;;;;;10.50;8.07;;;10.10;99.90;;;;;;5056946;28;20619;-82
2022/09/21 06:39:42;;;;;;;13.05;9.43;;;10.00;99.90;;;;;;5049981;28;20225;-84
2022/09/21 06:42:09;;;;;;;15.00;10.48;;;9.80;99.90;;;;;;5051415;28;20282;-82
2022/09/21 06:44:36;;;;;;;19.45;9.98;;;9.70;99.90;;;;;;5049806;28;20259;-84
2022/09/21 06:47:03;;;;;;;13.35;10.32;;;9.70;99.90;;;;;;5050186;28;20212;-84
2022/09/21 06:49:31;;;;;;;16.30;11.40;;;9.50;99.90;;;;;;5029969;28;20213;-83
2022/09/21 06:51:57;;;;;;;14.52;11.43;;;9.50;99.90;;;;;;5056806;28;20210;-82
2022/09/21 06:54:25;;;;;;;15.35;12.27;;;9.50;99.90;;;;;;5051339;28;20214;-84
2022/09/21 06:56:51;;;;;;;15.18;11.55;;;9.50;99.90;;;;;;5052370;28;20420;-84
2022/09/21 06:59:24;;;;;;;13.77;10.48;;;9.50;99.90;;;;;;5057053;28;20433;-85
2022/09/21 07:01:54;;;;;;;12.07;10.65;;;9.40;99.90;;;;;;5052214;28;20228;-87
2022/09/21 07:04:23;;;;;;;14.45;10.68;;;9.50;99.90;;;;;;5059161;28;20205;-82
2022/09/21 07:06:51;;;;;;;17.27;11.73;;;9.70;99.90;;;;;;5047741;28;20255;-82
2022/09/21 07:09:18;;;;;;;12.60;10.68;;;9.80;99.90;;;;;;5058599;28;20747;-80
2022/09/21 07:12:06;;;;;;;11.73;9.85;;;9.90;99.90;;;;;;5048343;28;20233;-80
2022/09/21 07:14:33;;;;;;;16.73;12.70;;;9.90;99.90;;;;;;5057816;28;20209;-86
2022/09/21 07:17:01;;;;;;;20.05;14.32;;;10.00;99.90;;;;;;5052746;28;20235;-84
2022/09/21 07:19:27;;;;;;;16.20;13.50;;;10.30;99.90;;;;;;5053938;28;20232;-83
2022/09/21 07:21:55;;;;;;;16.17;11.52;;;10.40;99.90;;;;;;5047542;28;20493;-85
2022/09/21 07:24:22;;;;;;;16.27;11.88;;;10.50;99.90;;;;;;5054186;28;20264;-84
2022/09/21 07:26:49;;;;;;;15.43;11.93;;;10.80;99.90;;;;;;5045017;28;20273;-83
2022/09/21 07:29:16;;;;;;;15.43;13.10;;;11.20;99.90;;;;;;5058983;28;20238;-84
2022/09/21 07:31:43;;;;;;;17.48;10.73;;;11.40;99.90;;;;;;5050153;28;20275;-86
2022/09/21 07:34:11;;;;;;;12.80;9.60;;;11.30;99.90;;;;;;5039328;28;20254;-81
2022/09/21 07:36:40;;;;;;;12.43;9.70;;;11.30;99.90;;;;;;5054387;28;20425;-81
2022/09/21 07:39:11;;;;;;;11.93;10.68;;;11.60;99.90;;;;;;5058008;28;20260;-85
2022/09/21 07:41:39;;;;;;;11.90;9.65;;;11.80;99.90;;;;;;5054402;28;20202;-85
2022/09/21 07:44:05;;;;;;;9.05;8.15;;;11.80;99.90;;;;;;5044818;28;20208;-83
2022/09/21 07:46:34;;;;;;;9.77;8.02;;;12.10;99.90;;;;;;5057527;28;20225;-86
2022/09/21 07:49:03;;;;;;;10.30;9.30;;;12.30;99.90;;;;;;5051601;28;20211;-85
2022/09/21 07:51:30;;;;;;;7.90;7.13;;;12.70;99.90;;;;;;5048289;28;20212;-87
2022/09/21 07:53:57;;;;;;;8.40;7.40;;;13.10;99.90;;;;;;5039015;28;20211;-86
2022/09/21 07:56:25;;;;;;;7.18;6.47;;;13.10;99.90;;;;;;5056634;28;20207;-86
2022/09/21 07:59:07;;;;;;;8.35;5.88;;;12.80;99.90;;;;;;5052930;28;20246;-86
2022/09/21 08:01:37;;;;;;;10.02;8.35;;;12.50;99.90;;;;;;5047465;28;20476;-86
2022/09/21 08:04:09;;;;;;;8.18;7.32;;;12.60;99.90;;;;;;5047373;28;20204;-85
2022/09/21 08:06:38;;;;;;;11.90;8.48;;;12.60;99.90;;;;;;5054050;28;20208;-85
2022/09/21 08:09:07;;;;;;;9.65;8.60;;;12.80;99.90;;;;;;5054235;28;20281;-86
2022/09/21 08:11:36;;;;;;;9.07;7.85;;;12.90;99.90;;;;;;5054532;28;20257;-86
2022/09/21 08:14:03;;;;;;;9.48;8.10;;;12.90;99.90;;;;;;5048251;28;20270;-88
2022/09/21 08:16:31;;;;;;;13.10;8.75;;;13.20;99.90;;;;;;5049842;28;20302;-86
2022/09/21 08:19:01;;;;;;;8.40;7.60;;;13.40;99.90;;;;;;5048662;28;20433;-84
2022/09/21 08:21:27;;;;;;;7.55;6.57;;;13.40;99.90;;;;;;5051226;28;20286;-85
2022/09/21 08:23:54;;;;;;;9.20;7.20;;;13.20;99.90;;;;;;5053778;28;20515;-88
2022/09/21 08:26:22;;;;;;;7.97;7.18;;;13.10;99.90;;;;;;5057129;28;20233;-84
2022/09/21 08:28:51;;;;;;;6.90;6.18;;;13.00;99.90;;;;;;5053896;28;20307;-87
2022/09/21 08:31:20;;;;;;;7.75;7.05;;;13.00;99.90;;;;;;5050645;28;20207;-84
2022/09/21 08:33:48;;;;;;;14.13;8.00;;;13.20;99.90;;;;;;5043581;28;20196;-87
2022/09/21 08:36:17;;;;;;;7.72;6.80;;;13.30;99.90;;;;;;5053132;28;20245;-85
2022/09/21 08:38:45;;;;;;;10.35;7.35;;;13.40;99.90;;;;;;5027933;28;20236;-84
2022/09/21 08:41:33;;;;;;;6.80;6.20;;;13.50;99.90;;;;;;5058656;28;20234;-86
2022/09/21 08:44:22;;;;;;;7.45;6.68;;;13.50;99.90;;;;;;5041523;28;20200;-88
2022/09/21 08:47:02;;;;;;;6.47;5.88;;;13.70;99.90;;;;;;5045173;28;20231;-89
2022/09/21 08:49:34;;;;;;;6.75;6.05;;;14.30;99.90;;;;;;5055136;28;20239;-85
2022/09/21 08:52:13;;;;;;;9.35;6.45;;;14.50;99.90;;;;;;5052139;28;20200;-86
2022/09/21 08:55:16;;;;;;;8.27;6.18;;;14.40;99.90;;;;;;5048052;28;20206;-85
2022/09/21 08:57:43;;;;;;;5.85;5.35;;;14.40;99.90;;;;;;5050011;28;20238;-89
2022/09/21 09:00:18;;;;;;;6.70;6.10;;;14.20;99.90;;;;;;5055387;28;20212;-88
2022/09/21 09:03:07;;;;;;;5.60;5.05;;;14.20;99.90;;;;;;5057564;28;20224;-88
2022/09/21 09:06:10;;;;;;;8.65;5.38;;;14.40;99.90;;;;;;5060300;28;20199;-90
2022/09/21 09:08:50;;;;;;;5.93;5.32;;;14.50;99.90;;;;;;5054652;28;20266;-84
2022/09/21 09:11:32;;;;;;;4.63;4.22;;;14.40;99.90;;;;;;5062830;28;20234;-85
2022/09/21 09:14:14;;;;;;;5.65;4.78;;;14.30;99.90;;;;;;5063757;28;20203;-85
2022/09/21 09:17:06;;;;;;;5.82;5.22;;;14.00;99.90;;;;;;5061039;28;20207;-86
2022/09/21 09:19:39;;;;;;;3.88;3.55;;;13.80;99.90;;;;;;5061299;28;20274;-81
2022/09/21 09:24:59;;;;;;;5.35;4.95;;;13.80;99.90;;;;;;5123275;22;20220;-85
2022/09/21 09:27:35;;;;;;;5.50;5.03;;;14.20;99.90;;;;;;5035909;28;20248;-88
2022/09/21 09:30:21;;;;;;;5.20;4.70;;;14.80;99.90;;;;;;5267830;22;20228;-86
2022/09/21 09:33:17;;;;;;;5.28;4.88;;;15.70;99.90;;;;;;5046495;28;20230;-86
2022/09/21 09:36:11;;;;;;;3.85;3.55;;;15.90;99.90;;;;;;5049753;28;20206;-86
2022/09/21 09:38:57;;;;;;;4.72;3.60;;;16.20;99.90;;;;;;5048786;28;20282;-84
2022/09/21 09:42:01;;;;;;;5.47;3.70;;;16.70;99.90;;;;;;5055022;28;20207;-87
2022/09/21 09:44:47;;;;;;;8.93;3.73;;;16.50;99.90;;;;;;5036452;28;20202;-85
2022/09/21 09:47:44;;;;;;;4.90;3.80;;;16.20;99.90;;;;;;5059011;28;20429;-89
2022/09/21 09:52:42;;;;;;;4.00;3.38;;;16.00;99.90;;;;;;5102315;22;20477;-84
2022/09/21 09:55:19;;;;;;;3.80;3.47;;;16.00;99.90;;;;;;5039229;28;20217;-84
2022/09/21 09:57:48;;;;;;;4.20;3.20;;;16.20;99.90;;;;;;5028235;28;20446;-83
2022/09/21 10:00:19;;;;;;;3.30;3.00;;;16.50;99.90;;;;;;5029701;28;20522;-85
2022/09/21 10:02:51;;;;;;;3.00;2.80;;;16.50;99.90;;;;;;5015899;28;20831;-85
2022/09/21 10:05:39;;;;;;;3.50;3.20;;;16.80;99.90;;;;;;5023568;28;20783;-85
2022/09/21 10:08:35;;;;;;;2.60;2.40;;;16.70;99.90;;;;;;5024272;28;20772;-88
2022/09/21 10:11:02;;;;;;;5.07;3.70;;;16.80;99.90;;;;;;5023801;28;20441;-85
2022/09/21 10:13:33;;;;;;;4.10;3.60;;;16.90;99.90;;;;;;5021225;28;20900;-85
2022/09/21 10:16:11;;;;;;;4.07;3.67;;;17.00;99.90;;;;;;5032842;28;20690;-85
2022/09/21 10:18:55;;;;;;;3.17;2.77;;;17.10;99.90;;;;;;5025159;28;20514;-82
2022/09/21 10:21:31;;;;;;;2.33;2.10;;;17.20;99.90;;;;;;5024321;28;20845;-87
2022/09/21 10:24:14;;;;;;;2.43;2.23;;;17.20;99.90;;;;;;5023006;28;21009;-90
2022/09/21 10:26:43;;;;;;;2.70;2.50;;;17.20;99.90;;;;;;5024219;28;20445;-84
2022/09/21 10:29:21;;;;;;;3.13;2.80;;;17.30;99.90;;;;;;5028792;28;20543;-85
2022/09/21 10:32:17;;;;;;;2.97;2.50;;;17.50;99.90;;;;;;5017375;28;20454;-84
2022/09/21 10:35:06;;;;;;;5.23;2.83;;;17.80;99.90;;;;;;5024533;28;20707;-87
2022/09/21 10:37:40;;;;;;;2.70;2.27;;;17.60;99.90;;;;;;5022826;28;20483;-82
2022/09/21 10:40:18;;;;;;;6.10;4.53;;;17.30;99.90;;;;;;5026316;28;20850;-87
2022/09/21 10:42:52;;;;;;;2.20;1.77;;;17.30;99.90;;;;;;5022360;28;20411;-83
2022/09/21 10:45:30;;;;;;;3.90;2.73;;;17.00;99.90;;;;;;5024094;28;20448;-86
2022/09/21 10:48:15;;;;;;;2.80;2.60;;;16.90;99.90;;;;;;5028117;28;20461;-88
2022/09/21 10:50:48;;;;;;;2.47;2.27;;;17.00;99.90;;;;;;5021332;28;20442;-83
2022/09/21 10:53:29;;;;;;;2.97;2.67;;;16.80;99.90;;;;;;5030846;28;20455;-87
2022/09/21 10:55:57;;;;;;;2.53;2.33;;;16.50;99.90;;;;;;5018421;28;20599;-87
2022/09/21 10:59:21;;;;;;;2.37;2.17;;;16.70;99.90;;;;;;5025394;28;20572;-82
2022/09/21 11:01:50;;;;;;;3.27;2.53;;;16.80;99.90;;;;;;5022316;28;20501;-86
2022/09/21 11:04:46;;;;;;;2.70;2.50;;;17.10;99.90;;;;;;5023833;28;20450;-84
2022/09/21 11:07:27;;;;;;;6.60;2.77;;;16.70;99.90;;;;;;5018886;28;20438;-83
2022/09/21 11:10:22;;;;;;;1.80;1.70;;;16.60;99.90;;;;;;5023652;28;20644;-86
2022/09/21 11:13:29;;;;;;;3.37;2.10;;;16.90;99.90;;;;;;5015117;28;20439;-87
2022/09/21 11:16:10;;;;;;;2.10;1.90;;;17.30;99.90;;;;;;5016709;28;20498;-85
2022/09/21 11:19:04;;;;;;;2.50;1.80;;;17.10;99.90;;;;;;5015374;28;20470;-87
2022/09/21 11:22:03;;;;;;;4.20;1.77;;;16.60;99.90;;;;;;5017929;28;20472;-86
2022/09/21 11:24:47;;;;;;;1.97;1.77;;;16.40;99.90;;;;;;5020199;28;20445;-82
2022/09/21 11:27:27;;;;;;;1.70;1.60;;;16.40;99.90;;;;;;5024561;28;20505;-84
2022/09/21 11:30:17;;;;;;;2.40;2.20;;;16.20;99.90;;;;;;5027300;28;20446;-82
2022/09/21 11:32:50;;;;;;;5.03;1.90;;;16.00;99.90;;;;;;5270880;23;20480;-86
2022/09/21 11:35:27;;;;;;;2.00;1.80;;;15.80;99.90;;;;;;5035759;28;20441;-88
2022/09/21 11:38:31;;;;;;;5.60;2.60;;;16.00;99.90;;;;;;5031752;28;20459;-87
2022/09/21 11:41:42;;;;;;;1.93;1.80;;;16.40;99.90;;;;;;5017166;28;20437;-85
2022/09/21 11:44:49;;;;;;;1.63;1.50;;;16.70;99.90;;;;;;4975643;28;20434;-83
2022/09/21 11:47:41;;;;;;;2.50;1.93;;;17.00;99.90;;;;;;5021592;28;20430;-86
2022/09/21 11:50:24;;;;;;;2.03;1.83;;;17.10;99.90;;;;;;5017304;28;20443;-82
2022/09/21 11:53:13;;;;;;;2.30;1.90;;;16.90;99.90;;;;;;5022481;28;20455;-89
2022/09/21 11:56:00;;;;;;;1.40;1.30;;;16.60;99.90;;;;;;5036067;28;20413;-81
2022/09/21 11:58:39;;;;;;;2.63;1.37;;;16.50;99.90;;;;;;5033739;28;20476;-83
2022/09/21 12:01:23;;;;;;;1.43;1.33;;;16.40;99.90;;;;;;5024995;28;20568;-85
2022/09/21 12:04:18;;;;;;;2.87;1.50;;;16.40;99.90;;;;;;5041728;28;20434;-86
2022/09/21 12:06:51;;;;;;;2.70;2.30;;;16.70;99.90;;;;;;5029254;28;20462;-84
2022/09/21 12:09:42;;;;;;;1.50;1.30;;;16.90;99.90;;;;;;5032733;28;20461;-86
2022/09/21 12:12:15;;;;;;;1.93;1.40;;;16.90;99.90;;;;;;5023603;28;20448;-86
2022/09/21 12:14:56;;;;;;;1.57;1.40;;;17.00;99.90;;;;;;5017211;28;20457;-84
2022/09/21 12:17:52;;;;;;;4.50;2.20;;;17.00;99.90;;;;;;5021885;28;20439;-82
2022/09/21 12:20:53;;;;;;;1.83;1.63;;;16.80;99.90;;;;;;5024237;28;20450;-86
2022/09/21 12:23:28;;;;;;;1.40;1.20;;;16.90;99.90;;;;;;5022439;28;20436;-86
2022/09/21 12:25:57;;;;;;;1.57;1.43;;;17.00;99.90;;;;;;5116091;23;20639;-86
2022/09/21 12:28:29;;;;;;;1.80;1.70;;;17.00;99.90;;;;;;5024155;28;20479;-83
2022/09/21 12:31:07;;;;;;;2.73;2.30;;;17.00;99.90;;;;;;5024450;28;20484;-84
2022/09/21 12:33:56;;;;;;;1.83;1.70;;;16.90;99.90;;;;;;5023208;28;20473;-88
2022/09/21 12:36:31;;;;;;;3.13;2.17;;;17.10;99.90;;;;;;5024754;28;20445;-84
2022/09/21 12:39:06;;;;;;;2.87;1.40;;;17.50;99.90;;;;;;5021786;28;20518;-87
2022/09/21 12:41:46;;;;;;;1.83;1.50;;;17.40;99.90;;;;;;5008591;28;20442;-84
2022/09/21 12:44:50;;;;;;;2.03;1.73;;;17.10;99.90;;;;;;5021214;28;20595;-85
2022/09/21 12:47:40;;;;;;;1.47;1.30;;;17.00;99.90;;;;;;5022332;28;20510;-86
2022/09/21 12:50:21;;;;;;;1.90;1.70;;;17.10;99.90;;;;;;5023732;28;20445;-84
2022/09/21 12:52:52;;;;;;;1.67;1.43;;;17.30;99.90;;;;;;5011564;28;20502;-86
2022/09/21 12:55:50;;;;;;;2.10;1.43;;;17.20;99.90;;;;;;5013347;28;20495;-85
2022/09/21 12:58:43;;;;;;;2.50;1.37;;;17.10;99.90;;;;;;5022925;28;20450;-88
2022/09/21 13:01:27;;;;;;;3.03;1.30;;;17.20;99.90;;;;;;5018517;28;20457;-85
2022/09/21 13:04:13;;;;;;;1.80;1.67;;;17.20;99.90;;;;;;5016184;28;20502;-87
2022/09/21 13:07:06;;;;;;;1.67;1.40;;;17.10;99.90;;;;;;5025735;28;20424;-87
2022/09/21 13:09:37;;;;;;;4.33;1.50;;;17.00;99.90;;;;;;5018308;28;20500;-85
2022/09/21 13:12:13;;;;;;;1.43;1.33;;;17.00;99.90;;;;;;5022577;28;20419;-84
2022/09/21 13:14:48;;;;;;;1.57;1.47;;;16.70;99.90;;;;;;5033190;28;20409;-85
2022/09/21 13:17:23;;;;;;;3.13;1.80;;;16.80;99.90;;;;;;5035397;28;20432;-87
2022/09/21 13:20:14;;;;;;;1.27;1.17;;;16.90;99.90;;;;;;5035803;28;20483;-84
2022/09/21 13:22:41;;;;;;;1.47;1.37;;;17.20;99.90;;;;;;5030194;28;20426;-87
2022/09/21 13:25:14;;;;;;;1.67;1.57;;;17.20;99.90;;;;;;5024847;28;20473;-86
2022/09/21 13:28:13;;;;;;;2.33;1.77;;;17.10;99.90;;;;;;5024073;28;20502;-88
2022/09/21 13:31:09;;;;;;;2.83;1.47;;;17.10;99.90;;;;;;5027020;28;20442;-87
2022/09/21 13:34:15;;;;;;;1.63;1.53;;;17.00;99.90;;;;;;5021044;28;20458;-85
2022/09/21 13:36:42;;;;;;;1.93;1.60;;;16.90;99.90;;;;;;5290734;23;20528;-88
2022/09/21 13:39:16;;;;;;;1.60;1.50;;;17.00;99.90;;;;;;5006416;28;20461;-86
2022/09/21 13:41:44;;;;;;;2.17;1.67;;;17.10;99.90;;;;;;5006906;28;20492;-86
2022/09/21 13:44:32;;;;;;;1.47;1.30;;;17.10;99.90;;;;;;5150847;23;20481;-85
2022/09/21 13:47:00;;;;;;;1.90;1.50;;;17.20;99.90;;;;;;5027428;28;20408;-87
2022/09/21 13:49:39;;;;;;;1.77;1.57;;;17.30;99.90;;;;;;5014297;28;20454;-85
2022/09/21 13:52:15;;;;;;;0.80;0.80;;;17.00;99.90;;;;;;5019550;28;20516;-86
2022/09/21 13:54:57;;;;;;;1.50;1.20;;;16.40;99.90;;;;;;5024625;28;20529;-86
2022/09/21 13:57:38;;;;;;;1.37;1.27;;;15.80;99.90;;;;;;5224675;22;20494;-89
2022/09/21 14:00:32;;;;;;;1.50;1.33;;;15.40;99.90;;;;;;4992145;28;20503;-89
2022/09/21 14:05:47;;;;;;;1.70;1.60;;;14.90;99.90;;;;;;5582929;23;20482;-87
2022/09/21 14:08:15;;;;;;;2.93;1.87;;;15.20;99.90;;;;;;5047778;28;20442;-87
2022/09/21 14:11:04;;;;;;;3.50;1.93;;;15.30;99.90;;;;;;5144765;22;20490;-87
2022/09/21 14:13:40;;;;;;;2.45;1.70;;;15.60;99.90;;;;;;5038884;28;20470;-86
2022/09/21 14:19:19;;;;;;;2.60;1.90;;;15.90;99.90;;;;;;4516189;22;20479;-85
2022/09/21 14:22:08;;;;;;;2.07;1.87;;;16.00;99.90;;;;;;5034834;28;20450;-87
2022/09/21 14:24:50;;;;;;;2.37;1.97;;;16.20;99.90;;;;;;5112702;22;20495;-84
2022/09/21 14:27:44;;;;;;;2.87;1.87;;;16.20;99.90;;;;;;5333190;22;20568;-86
2022/09/21 14:30:22;;;;;;;1.97;1.87;;;16.20;99.90;;;;;;5012222;28;20459;-86
2022/09/21 14:32:58;;;;;;;3.60;2.60;;;16.00;99.90;;;;;;5002351;28;20512;-84
2022/09/21 14:35:47;;;;;;;1.67;1.58;;;15.90;99.90;;;;;;5012853;28;20235;-86
2022/09/21 14:38:41;;;;;;;1.80;1.70;;;15.90;99.90;;;;;;5008000;28;20193;-86
2022/09/21 14:41:15;;;;;;;1.60;1.50;;;15.90;99.90;;;;;;5008150;28;20447;-86
2022/09/21 14:43:50;;;;;;;2.20;1.53;;;15.80;99.90;;;;;;5039263;23;20446;-86
2022/09/21 14:46:39;;;;;;;1.73;1.63;;;15.70;99.90;;;;;;5015744;28;20433;-86